Phillips Army Air Field Aberdeen Proving Grounds(Aberdeen) US
ICAO: KAPG
IATA: APG
Category: Medium
Scheduled Services: No

Elevation: 57 ft
TransAlt. 18000 ft.

Airport Communications:
POTOMAC APP/DEP:126.75
ATIS:108.4
GND:121.9
TWR:126.15

KAPG Zoom In..

Runways:

(A) RW 04 length 7997 ft width 200 ft
---- / hdg 38

(B) RW 08 length 4849 ft width 149 ft
---- / hdg 82

(C) RW 17 length 5004 ft width 149 ft
---- / hdg 171

(D) RW 22 length 7997 ft width 200 ft
---- / hdg 218

(E) RW 26 length 4849 ft width 149 ft
---- / hdg 262

(F) RW 35 length 5004 ft width 149 ft
---- / hdg 351

Location; KAPG
Day. 21 / Time. 14.58 Zulu
* Altimeter: 30.22
* Temperature: 22° c. 71.6°f.
* Wind from: 080° Speed 06 kn.
Dewpoint: 15° c.
Visibility: 10 Statute Miles.
Clouds: Few 2000 ft.

KAPG 211458Z 08006KT 10SM FEW200 22/15 A3022 RMK AO2A SLP236 T02220146 50007 $


Wind From 080°
Speed 06 kn.

 
 
jpsmedia.com for Web Design SOUNDCLOUD worldairports.se 2018   terms of use